Carthage, Illinois
Current Conditions -  °F | °C
As of 2:15 PM on Monday 26 Jan 2015 (Local Time) from KEOK Reporting Station
Overcast Overcast  
Wind Chill: 33°   Ceiling: 2600
Heat Index: 37°   Visibility: 10mi
Dew Point: 34°   Wind: 6mph
Humidity: 87%   Direction: 170°S
Pressure: 29.8"   Gusts: NA
Location:  40.42°N, 91.14°W
Report Text: KEOK 262015Z AUTO 17005KT 10SM OVC026 03/01 A2980 RMK AO2
Loading
Personal Weather Stations






























Interactive Weather Map New forecast layout! Learn more

10-Day Weather Forecast

Advertisements
Track Severe Weather on mobile